Time;durP1;ratioP1;P1;durP2;ratioP2;P2;SDS_P1;SDS_P2;PMS_P1;PMS_P2;Temp;Humidity;BMP_temperature;BMP_pressure;BME280_temperature;BME280_humidity;BME280_pressure;Samples;Min_cycle;Max_cycle;Signal;HPM_P1;HPM_P2
2023/04/11 00:02:23;;;;;;;20.02;5.22;;;;;;;9.34;93.17;100847.38;4993793;28;20629;-70
2023/04/11 00:04:53;;;;;;;18.95;4.88;;;;;;;9.32;92.69;100854.25;4994177;28;20036;-70
2023/04/11 00:07:19;;;;;;;19.38;4.97;;;;;;;9.30;92.69;100848.13;4993601;28;20489;-70
2023/04/11 00:09:44;;;;;;;18.88;5.32;;;;;;;9.28;93.09;100848.06;4993245;28;20041;-70
2023/04/11 00:12:09;;;;;;;20.85;5.78;;;;;;;9.27;93.07;100835.03;4994157;28;20425;-70
2023/04/11 00:14:34;;;;;;;21.52;5.53;;;;;;;9.26;92.99;100854.97;4991347;28;20061;-69
2023/04/11 00:17:00;;;;;;;19.73;4.88;;;;;;;9.24;92.72;100851.44;4988158;28;20038;-69
2023/04/11 00:19:27;;;;;;;19.60;5.30;;;;;;;9.20;92.18;100849.59;4990540;28;20092;-70
2023/04/11 00:21:56;;;;;;;25.50;5.55;;;;;;;9.18;93.00;100856.44;4993553;28;20593;-69
2023/04/11 00:24:22;;;;;;;18.63;5.53;;;;;;;9.15;92.53;100857.25;4992721;28;20056;-69
2023/04/11 00:26:47;;;;;;;20.75;4.95;;;;;;;9.12;92.84;100857.13;4991572;28;20034;-69
2023/04/11 00:29:13;;;;;;;19.30;5.22;;;;;;;9.10;92.77;100853.63;4992012;28;20485;-69
2023/04/11 00:31:38;;;;;;;19.20;5.88;;;;;;;9.05;92.71;100855.19;4991572;28;20030;-70
2023/04/11 00:34:03;;;;;;;23.17;6.00;;;;;;;9.01;92.57;100863.75;4991601;28;20061;-70
2023/04/11 00:36:30;;;;;;;17.08;5.30;;;;;;;8.97;92.59;100862.78;4991988;28;20041;-63
2023/04/11 00:38:57;;;;;;;23.48;5.97;;;;;;;8.92;92.66;100859.16;4993393;28;20445;-63
2023/04/11 00:41:23;;;;;;;22.23;5.53;;;;;;;8.88;93.05;100863.38;4989622;28;20054;-63
2023/04/11 00:43:48;;;;;;;21.83;5.35;;;;;;;8.83;92.85;100867.53;4992187;28;20156;-63
2023/04/11 00:46:15;;;;;;;20.45;5.63;;;;;;;8.80;93.02;100859.66;4990957;28;20489;-63
2023/04/11 00:48:41;;;;;;;16.02;5.63;;;;;;;8.76;93.38;100872.50;4998605;28;20081;-64
2023/04/11 00:51:07;;;;;;;24.17;5.85;;;;;;;8.74;93.44;100861.19;4991808;28;20211;-63
2023/04/11 00:53:34;;;;;;;22.50;5.45;;;;;;;8.72;93.68;100866.34;4990602;28;20031;-63
2023/04/11 00:55:59;;;;;;;21.73;5.68;;;;;;;8.72;93.59;100865.44;4992413;28;20040;-63
2023/04/11 00:58:26;;;;;;;21.80;5.80;;;;;;;8.74;93.72;100859.47;4993358;28;20034;-63
2023/04/11 01:00:51;;;;;;;21.17;5.90;;;;;;;8.75;93.72;100858.63;4992975;28;20053;-63
2023/04/11 01:03:17;;;;;;;17.35;5.55;;;;;;;8.76;93.54;100865.59;4993225;28;20068;-64
2023/04/11 01:05:44;;;;;;;22.05;6.65;;;;;;;8.78;93.62;100856.13;4973987;28;20126;-63
2023/04/11 01:08:10;;;;;;;25.40;6.72;;;;;;;8.77;93.34;100854.34;4992385;28;20101;-64
2023/04/11 01:10:36;;;;;;;23.40;5.93;;;;;;;8.76;93.57;100850.03;4990626;28;20117;-63
2023/04/11 01:13:02;;;;;;;19.13;5.13;;;;;;;8.77;93.17;100853.50;4992491;28;20379;-63
2023/04/11 01:15:27;;;;;;;27.63;6.20;;;;;;;8.74;93.12;100851.66;4992774;28;20053;-63
2023/04/11 01:17:54;;;;;;;25.33;5.88;;;;;;;8.73;93.30;100852.50;4990966;28;20470;-63
2023/04/11 01:20:20;;;;;;;22.50;5.88;;;;;;;8.70;93.26;100855.91;4991012;28;20406;-63
2023/04/11 01:22:48;;;;;;;22.77;6.00;;;;;;;8.70;93.33;100860.19;4990848;28;20068;-63
2023/04/11 01:25:14;;;;;;;24.25;5.35;;;;;;;8.68;93.35;100854.97;4992007;28;20033;-63
2023/04/11 01:27:41;;;;;;;19.98;4.75;;;;;;;8.65;93.02;100849.66;4989104;28;20109;-63
2023/04/11 01:30:07;;;;;;;17.17;4.47;;;;;;;8.63;93.46;100855.63;4990322;28;20048;-63
2023/04/11 01:32:33;;;;;;;21.48;5.43;;;;;;;8.60;93.71;100845.16;4991616;28;20049;-62
2023/04/11 01:34:59;;;;;;;22.42;4.68;;;;;;;8.60;93.49;100856.41;4989971;28;20034;-63
2023/04/11 01:37:25;;;;;;;21.75;5.35;;;;;;;8.61;93.17;100858.19;4989956;28;20022;-63
2023/04/11 01:39:50;;;;;;;22.90;4.93;;;;;;;8.58;93.61;100865.03;4989426;28;20051;-63
2023/04/11 01:42:17;;;;;;;21.25;4.72;;;;;;;8.58;93.47;100867.63;4990185;28;20486;-63
2023/04/11 01:44:42;;;;;;;20.42;5.20;;;;;;;8.57;93.29;100876.22;4989560;28;20453;-63
2023/04/11 01:47:07;;;;;;;25.08;5.50;;;;;;;8.53;93.09;100881.34;4990339;28;20030;-63
2023/04/11 01:49:33;;;;;;;26.48;5.35;;;;;;;8.48;92.65;100882.88;4995230;28;20433;-63
2023/04/11 01:51:58;;;;;;;24.15;4.80;;;;;;;8.44;93.19;100881.00;4991622;28;20053;-63
2023/04/11 01:54:23;;;;;;;20.38;5.05;;;;;;;8.42;93.21;100885.25;4991412;28;20030;-63
2023/04/11 01:56:49;;;;;;;19.38;5.03;;;;;;;8.39;93.48;100887.75;4992016;28;20109;-63
2023/04/11 01:59:14;;;;;;;24.95;5.93;;;;;;;8.35;93.61;100886.75;4991988;28;20052;-63
2023/04/11 02:01:43;;;;;;;19.13;4.93;;;;;;;8.32;93.68;100896.16;4992031;28;20033;-63
2023/04/11 02:04:08;;;;;;;25.27;5.80;;;;;;;8.31;93.85;100903.09;4990594;28;20494;-63
2023/04/11 02:06:34;;;;;;;23.10;4.57;;;;;;;8.29;94.23;100899.53;4991928;28;20037;-63
2023/04/11 02:08:59;;;;;;;22.77;5.72;;;;;;;8.28;94.04;100902.09;4991305;28;20114;-63
2023/04/11 02:11:24;;;;;;;24.55;5.45;;;;;;;8.28;94.49;100889.09;4991267;28;20045;-63
2023/04/11 02:13:51;;;;;;;21.75;5.40;;;;;;;8.28;94.52;100902.09;4991430;28;20034;-64
2023/04/11 02:16:16;;;;;;;27.63;5.50;;;;;;;8.28;94.42;100904.69;4990471;28;20037;-63
2023/04/11 02:18:43;;;;;;;24.10;5.80;;;;;;;8.27;94.21;100905.50;4990791;28;20034;-63
2023/04/11 02:21:09;;;;;;;19.67;4.60;;;;;;;8.27;93.95;100909.00;4991635;28;20040;-63
2023/04/11 02:23:34;;;;;;;22.88;5.05;;;;;;;8.26;94.05;100911.53;4990730;28;20026;-63
2023/04/11 02:26:00;;;;;;;19.98;5.57;;;;;;;8.22;93.89;100909.66;4988662;28;20107;-63
2023/04/11 02:28:26;;;;;;;20.25;5.10;;;;;;;8.21;94.03;100910.50;4988772;28;20033;-63
2023/04/11 02:30:51;;;;;;;20.88;5.78;;;;;;;8.25;93.89;100914.97;4988596;28;20034;-63
2023/04/11 02:33:18;;;;;;;20.15;4.70;;;;;;;8.23;94.29;100919.22;4990981;28;20052;-63
2023/04/11 02:35:43;;;;;;;22.15;5.28;;;;;;;8.24;94.34;100915.78;4989238;28;20033;-63
2023/04/11 02:38:08;;;;;;;27.50;5.40;;;;;;;8.25;94.04;100920.16;4990402;28;20026;-62
2023/04/11 02:40:34;;;;;;;21.50;4.80;;;;;;;8.26;93.90;100919.34;4990371;28;20038;-63
2023/04/11 02:43:00;;;;;;;25.60;5.10;;;;;;;8.26;93.72;100911.53;4989329;28;20018;-63
2023/04/11 02:45:25;;;;;;;22.08;5.15;;;;;;;8.27;93.34;100921.06;4987788;28;20026;-63
2023/04/11 02:47:50;;;;;;;25.05;5.35;;;;;;;8.27;93.13;100921.06;4989764;28;20057;-63
2023/04/11 02:50:16;;;;;;;19.48;4.97;;;;;;;8.26;92.55;100927.13;4997493;28;20022;-63
2023/04/11 02:52:43;;;;;;;18.00;4.63;;;;;;;8.24;92.57;100929.66;4990424;28;20026;-63
2023/04/11 02:55:09;;;;;;;18.75;4.15;;;;;;;8.23;92.78;100919.22;4987719;28;20026;-63
2023/04/11 02:57:34;;;;;;;18.23;4.20;;;;;;;8.23;92.35;100919.22;4972417;28;20030;-63
2023/04/11 03:00:00;;;;;;;21.02;4.25;;;;;;;8.23;92.05;100927.03;4985611;28;20037;-63
2023/04/11 03:02:25;;;;;;;13.65;3.85;;;;;;;8.17;92.01;100925.09;4989886;28;20027;-63
2023/04/11 03:04:50;;;;;;;14.82;3.58;;;;;;;8.16;92.22;100924.19;4988887;28;20116;-63
2023/04/11 03:07:16;;;;;;;16.38;3.65;;;;;;;8.14;91.83;100922.38;4990085;28;20512;-64
2023/04/11 03:09:41;;;;;;;20.30;4.05;;;;;;;8.12;92.21;100924.91;4988622;28;20034;-63
2023/04/11 03:12:06;;;;;;;20.98;3.75;;;;;;;8.12;92.09;100931.81;4989625;28;20038;-63
2023/04/11 03:14:32;;;;;;;11.32;3.17;;;;;;;8.11;91.91;100930.03;4987071;28;20033;-63
2023/04/11 03:16:57;;;;;;;15.45;3.10;;;;;;;8.12;91.99;100935.28;4987931;28;20611;-63
2023/04/11 03:19:22;;;;;;;12.35;3.28;;;;;;;8.11;91.40;100936.16;4989272;28;20902;-63
2023/04/11 03:21:47;;;;;;;18.63;3.33;;;;;;;8.11;91.12;100936.16;4972811;28;20042;-63
2023/04/11 03:24:13;;;;;;;16.38;3.63;;;;;;;8.11;91.14;100943.03;4990427;28;20038;-63
2023/04/11 03:26:38;;;;;;;15.40;2.95;;;;;;;8.10;90.75;100947.34;4989351;28;20049;-64
2023/04/11 03:29:03;;;;;;;13.77;3.28;;;;;;;8.07;90.42;100955.03;4986599;28;20120;-63
2023/04/11 03:31:29;;;;;;;14.48;3.40;;;;;;;8.08;90.50;100955.91;4986091;28;20037;-63
2023/04/11 03:33:55;;;;;;;13.82;2.85;;;;;;;8.08;89.83;100962.00;4987055;28;20030;-63
2023/04/11 03:36:21;;;;;;;16.55;2.97;;;;;;;8.05;89.83;100961.84;4990350;28;20544;-63
2023/04/11 03:38:47;;;;;;;15.73;2.88;;;;;;;8.04;89.85;100959.19;4989725;28;20045;-63
2023/04/11 03:41:12;;;;;;;14.25;2.88;;;;;;;8.06;90.30;100960.16;4990019;28;20026;-63
2023/04/11 03:43:38;;;;;;;14.05;2.45;;;;;;;8.05;89.80;100963.56;4988479;28;20026;-64
2023/04/11 03:46:03;;;;;;;12.50;2.60;;;;;;;8.05;89.84;100971.34;4988023;28;20152;-63
2023/04/11 03:48:29;;;;;;;16.05;3.45;;;;;;;8.04;89.27;100967.91;4991625;28;20050;-63
2023/04/11 03:50:55;;;;;;;13.55;2.15;;;;;;;8.02;89.23;100972.13;4990054;28;20088;-63
2023/04/11 03:53:20;;;;;;;12.40;2.70;;;;;;;8.01;89.89;100971.25;4990102;28;20548;-63
2023/04/11 03:55:47;;;;;;;12.38;2.42;;;;;;;7.99;89.74;100972.03;4989356;28;20040;-63
2023/04/11 03:58:13;;;;;;;13.02;2.53;;;;;;;7.98;88.93;100973.75;4983749;28;20494;-63
2023/04/11 04:00:38;;;;;;;8.77;2.10;;;;;;;7.96;88.97;100971.91;4987060;28;20038;-63
2023/04/11 04:03:03;;;;;;;13.73;2.60;;;;;;;7.95;88.67;100978.81;4988031;28;20113;-63
2023/04/11 04:05:29;;;;;;;12.55;2.75;;;;;;;7.91;88.43;100971.75;4988683;28;20026;-63
2023/04/11 04:07:54;;;;;;;11.32;2.30;;;;;;;7.88;88.49;100976.84;4990187;28;20038;-63
2023/04/11 04:10:19;;;;;;;7.90;2.00;;;;;;;7.86;88.91;100975.88;4991716;28;20089;-63
2023/04/11 04:12:45;;;;;;;14.70;2.30;;;;;;;7.85;88.77;100976.72;4991368;28;20477;-63
2023/04/11 04:15:13;;;;;;;11.57;2.70;;;;;;;7.82;88.52;100972.31;4992992;28;20022;-63
2023/04/11 04:17:38;;;;;;;9.20;2.10;;;;;;;7.78;88.55;100970.41;4974329;28;20468;-63
2023/04/11 04:20:05;;;;;;;14.85;2.70;;;;;;;7.76;88.76;100982.47;4989748;28;20110;-63
2023/04/11 04:22:31;;;;;;;11.07;2.60;;;;;;;7.73;88.89;100977.13;4992215;28;20049;-63
2023/04/11 04:24:56;;;;;;;14.18;3.05;;;;;;;7.70;89.10;100987.38;4974553;28;20501;-63
2023/04/11 04:27:23;;;;;;;14.63;3.00;;;;;;;7.66;89.47;100978.63;4993243;28;20045;-63
2023/04/11 04:29:50;;;;;;;16.58;2.72;;;;;;;7.63;89.70;100982.81;4993510;28;20030;-63
2023/04/11 04:32:21;;;;;;;11.82;2.75;;;;;;;7.59;89.77;100991.28;4993779;28;20030;-63
2023/04/11 04:34:48;;;;;;;19.98;2.97;;;;;;;7.55;90.01;100995.50;4991220;28;20440;-64
2023/04/11 04:37:23;;;;;;;14.82;2.65;;;;;;;7.53;90.63;101004.94;4992822;28;20053;-69
2023/04/11 04:39:56;;;;;;;14.40;2.70;;;;;;;7.50;90.34;101012.56;4993472;28;20030;-69
2023/04/11 04:42:23;;;;;;;11.00;2.53;;;;;;;7.47;90.62;101012.44;4994862;28;20615;-69
2023/04/11 04:44:49;;;;;;;13.85;2.78;;;;;;;7.48;90.64;101015.09;4998371;28;20026;-70
2023/04/11 04:47:15;;;;;;;10.93;2.80;;;;;;;7.43;91.01;101015.75;4993052;28;20038;-69
2023/04/11 04:49:44;;;;;;;13.13;2.90;;;;;;;7.43;90.89;101018.31;4994103;28;20045;-70
2023/04/11 04:52:10;;;;;;;12.60;3.42;;;;;;;7.38;91.35;101022.47;4964968;28;20065;-70
2023/04/11 04:54:36;;;;;;;11.88;3.00;;;;;;;7.34;91.38;101034.41;4988822;28;20106;-70
2023/04/11 04:57:01;;;;;;;13.88;3.08;;;;;;;7.34;91.00;101037.00;4992592;28;20113;-69
2023/04/11 04:59:26;;;;;;;12.80;2.45;;;;;;;7.29;91.67;101035.94;4992687;28;20093;-69
2023/04/11 05:01:52;;;;;;;14.10;3.00;;;;;;;7.27;91.46;101042.75;4992238;28;20118;-70
2023/04/11 05:04:18;;;;;;;13.45;2.80;;;;;;;7.25;91.67;101054.78;4990115;28;20029;-69
2023/04/11 05:06:44;;;;;;;12.90;2.63;;;;;;;7.21;91.75;101055.47;4993222;28;20125;-69
2023/04/11 05:09:09;;;;;;;10.38;3.00;;;;;;;7.18;91.90;101056.22;5001819;28;20096;-69
2023/04/11 05:11:34;;;;;;;13.80;2.97;;;;;;;7.18;91.97;101057.94;4992645;28;20429;-69
2023/04/11 05:14:00;;;;;;;14.98;3.10;;;;;;;7.17;92.28;101063.94;4991530;28;20058;-69
2023/04/11 05:16:25;;;;;;;14.48;2.97;;;;;;;7.15;92.26;101063.88;4990464;28;20026;-70
2023/04/11 05:18:51;;;;;;;13.05;2.78;;;;;;;7.14;91.89;101065.59;4991263;28;20061;-69
2023/04/11 05:21:16;;;;;;;17.45;2.65;;;;;;;7.14;92.21;101063.00;4989491;28;20430;-70
2023/04/11 05:23:42;;;;;;;12.13;2.80;;;;;;;7.13;91.82;101070.72;4992005;28;20038;-70
2023/04/11 05:26:08;;;;;;;7.97;2.53;;;;;;;7.11;92.38;101073.25;4991826;28;20034;-69
2023/04/11 05:28:34;;;;;;;11.73;2.72;;;;;;;7.08;92.36;101078.31;4991486;28;20026;-70
2023/04/11 05:31:00;;;;;;;11.13;2.95;;;;;;;7.06;92.58;101072.16;4991756;28;20034;-69
2023/04/11 05:33:25;;;;;;;14.65;2.80;;;;;;;7.06;92.42;101082.53;4991068;28;20027;-69
2023/04/11 05:35:51;;;;;;;13.95;2.85;;;;;;;7.05;93.02;101069.50;4995962;28;20109;-70
2023/04/11 05:38:16;;;;;;;14.18;2.92;;;;;;;7.07;92.72;101081.72;4993313;28;20433;-63
2023/04/11 05:40:41;;;;;;;10.43;2.70;;;;;;;7.09;92.52;101089.56;4994752;28;20097;-62
2023/04/11 05:43:12;;;;;;;8.95;2.45;;;;;;;7.09;92.41;101089.56;4990750;28;20477;-63
2023/04/11 05:45:38;;;;;;;11.05;2.50;;;;;;;7.11;92.18;101104.34;4991398;28;20560;-63
2023/04/11 05:48:06;;;;;;;13.98;2.50;;;;;;;7.11;92.32;101104.34;4993873;28;20099;-63
2023/04/11 05:50:32;;;;;;;13.35;2.67;;;;;;;7.13;92.45;101105.28;5000216;28;20026;-63
2023/04/11 05:52:57;;;;;;;9.70;2.38;;;;;;;7.16;92.69;101111.44;4992224;28;20473;-63
2023/04/11 05:55:22;;;;;;;9.68;2.20;;;;;;;7.17;91.92;101108.91;4991970;28;20121;-63
2023/04/11 05:57:48;;;;;;;12.50;2.53;;;;;;;7.17;92.37;101118.38;4992071;28;20037;-63
2023/04/11 06:00:15;;;;;;;13.63;2.85;;;;;;;7.21;92.52;101120.28;4991217;28;20084;-63
2023/04/11 06:02:41;;;;;;;10.30;2.13;;;;;;;7.27;92.36;101120.50;4992134;28;20114;-63
2023/04/11 06:05:10;;;;;;;12.05;2.50;;;;;;;7.31;92.29;101122.41;4991992;28;20026;-63
2023/04/11 06:07:36;;;;;;;12.48;2.47;;;;;;;7.33;91.74;101131.16;4992146;28;20030;-63
2023/04/11 06:10:01;;;;;;;12.63;2.40;;;;;;;7.34;91.08;101132.03;4991758;28;20113;-63
2023/04/11 06:12:27;;;;;;;13.00;2.50;;;;;;;7.32;91.59;101134.56;4995980;28;20485;-64
2023/04/11 06:14:52;;;;;;;11.52;2.60;;;;;;;7.31;91.60;101130.19;4990215;28;20037;-63
2023/04/11 06:17:17;;;;;;;9.18;2.67;;;;;;;7.32;91.37;101129.38;4991256;28;20038;-63
2023/04/11 06:19:42;;;;;;;15.00;2.83;;;;;;;7.34;91.75;101132.03;4992786;28;20030;-63
2023/04/11 06:22:08;;;;;;;10.63;2.60;;;;;;;7.36;91.20;101132.97;4992415;28;20671;-63
2023/04/11 06:24:44;;;;;;;9.70;2.42;;;;;;;7.39;91.39;101139.19;4989710;28;20034;-63
2023/04/11 06:27:10;;;;;;;14.25;3.08;;;;;;;7.46;91.27;101137.75;4991081;28;20034;-63
2023/04/11 06:29:36;;;;;;;8.18;2.40;;;;;;;7.48;91.01;101131.78;4991295;28;20516;-63
2023/04/11 06:32:01;;;;;;;12.27;2.97;;;;;;;7.52;90.86;101129.28;4986715;28;20034;-62
2023/04/11 06:34:27;;;;;;;14.38;3.25;;;;;;;7.59;90.84;101133.91;4988406;28;20026;-63
2023/04/11 06:36:52;;;;;;;12.95;2.50;;;;;;;7.67;90.94;101142.88;4990827;28;20484;-63
2023/04/11 06:39:18;;;;;;;12.88;2.97;;;;;;;7.72;90.79;101140.47;4993897;28;20466;-64
2023/04/11 06:41:45;;;;;;;13.52;2.63;;;;;;;7.81;90.00;101135.69;4996581;28;20044;-64
2023/04/11 06:44:10;;;;;;;14.55;2.83;;;;;;;7.88;89.76;101144.56;4978004;28;20105;-63
2023/04/11 06:46:35;;;;;;;13.93;2.72;;;;;;;7.97;89.41;101139.75;4994334;28;20102;-64
2023/04/11 06:49:02;;;;;;;11.73;2.83;;;;;;;8.03;88.19;101149.50;4996363;28;20040;-63
2023/04/11 06:51:27;;;;;;;11.15;2.45;;;;;;;8.09;88.43;101155.78;4989293;28;20043;-64
2023/04/11 06:53:53;;;;;;;11.30;2.83;;;;;;;8.17;87.88;101143.13;4990926;28;20030;-63
2023/04/11 06:56:18;;;;;;;10.88;2.60;;;;;;;8.28;87.38;101159.09;4984486;28;20038;-63
2023/04/11 06:58:43;;;;;;;16.17;2.83;;;;;;;8.34;87.94;101164.50;4995015;28;20449;-63
2023/04/11 07:01:08;;;;;;;10.00;2.05;;;;;;;8.42;86.07;101165.69;4989453;28;20080;-63
2023/04/11 07:03:34;;;;;;;12.70;2.33;;;;;;;8.47;86.73;101166.78;4990453;28;20151;-63
2023/04/11 07:06:00;;;;;;;11.43;2.40;;;;;;;8.56;86.95;101165.34;4990862;28;20033;-63
2023/04/11 07:08:25;;;;;;;10.40;2.85;;;;;;;8.61;85.80;101163.81;4990289;28;20116;-63
2023/04/11 07:10:50;;;;;;;10.75;2.13;;;;;;;8.66;86.33;101173.53;4989899;28;20073;-63
2023/04/11 07:13:15;;;;;;;12.10;2.17;;;;;;;8.75;84.89;101172.09;4990626;28;20046;-64
2023/04/11 07:15:41;;;;;;;10.80;2.33;;;;;;;8.79;84.22;101171.38;4992848;28;20109;-63
2023/04/11 07:18:06;;;;;;;10.13;2.40;;;;;;;8.87;84.27;101180.34;4993145;28;20383;-63
2023/04/11 07:20:33;;;;;;;12.63;2.55;;;;;;;8.94;84.88;101184.94;4993382;28;20026;-63
2023/04/11 07:22:58;;;;;;;13.48;2.97;;;;;;;8.97;83.38;101187.63;4991802;28;20023;-63
2023/04/11 07:25:29;;;;;;;10.63;2.70;;;;;;;8.92;83.92;101183.09;4989950;28;20033;-64
2023/04/11 07:27:55;;;;;;;15.57;3.53;;;;;;;8.87;83.74;101188.13;4997984;28;20429;-63
2023/04/11 07:30:21;;;;;;;10.32;2.85;;;;;;;8.85;84.38;101190.69;4994539;28;20413;-63
2023/04/11 07:32:46;;;;;;;12.23;2.90;;;;;;;8.87;84.39;101199.41;4990052;28;20030;-63
2023/04/11 07:35:11;;;;;;;14.25;3.38;;;;;;;8.86;83.83;101196.75;4992767;28;20338;-63
2023/04/11 07:37:37;;;;;;;10.57;2.85;;;;;;;8.87;82.94;101198.53;4990209;28;20042;-63
2023/04/11 07:40:09;;;;;;;11.80;3.05;;;;;;;8.87;83.52;101214.13;4993460;28;20041;-64
2023/04/11 07:42:34;;;;;;;10.52;3.13;;;;;;;8.96;81.69;101201.44;4987506;28;20113;-64
2023/04/11 07:45:00;;;;;;;11.70;2.72;;;;;;;8.97;83.66;101203.22;4990575;28;20109;-64
2023/04/11 07:47:25;;;;;;;12.20;3.05;;;;;;;9.09;82.19;101209.69;4990929;28;20072;-63
2023/04/11 07:50:15;;;;;;;11.07;2.78;;;;;;;9.23;81.20;101195.47;4997078;28;20034;-64
2023/04/11 07:52:40;;;;;;;10.70;2.85;;;;;;;9.29;79.26;101205.19;4997193;28;20066;-64
2023/04/11 07:55:07;;;;;;;8.23;2.47;;;;;;;9.18;79.41;101208.31;4999197;28;20030;-64
2023/04/11 07:57:32;;;;;;;14.50;3.20;;;;;;;9.26;79.66;101205.09;5003780;28;20021;-63
2023/04/11 07:59:58;;;;;;;12.80;2.60;;;;;;;9.25;79.98;101201.59;5000711;28;20034;-64
2023/04/11 08:02:23;;;;;;;11.85;2.63;;;;;;;9.24;80.45;101210.25;4997132;28;20034;-63
2023/04/11 08:04:48;;;;;;;12.25;2.60;;;;;;;9.38;78.74;101223.72;4994334;28;20156;-64
2023/04/11 08:07:14;;;;;;;12.00;2.80;;;;;;;9.49;79.39;101217.16;4999094;28;20049;-64
2023/04/11 08:09:41;;;;;;;10.77;2.63;;;;;;;9.62;77.80;101217.59;5004663;28;20075;-64
2023/04/11 08:12:09;;;;;;;11.80;2.90;;;;;;;9.66;77.45;101228.16;5007634;28;20037;-63
2023/04/11 08:14:35;;;;;;;11.35;2.65;;;;;;;9.64;78.19;101226.31;4999339;28;20026;-64
2023/04/11 08:17:01;;;;;;;11.90;2.92;;;;;;;9.76;77.26;101226.72;5006139;28;20034;-63
2023/04/11 08:19:26;;;;;;;8.73;2.33;;;;;;;9.84;77.43;101230.47;4998236;28;20042;-63
2023/04/11 08:21:52;;;;;;;11.50;2.60;;;;;;;9.88;75.04;101232.34;4998385;28;20080;-64
2023/04/11 08:24:18;;;;;;;9.57;2.38;;;;;;;9.88;75.52;101240.16;5004428;28;20077;-64
2023/04/11 08:26:44;;;;;;;11.23;2.75;;;;;;;9.91;75.58;101242.84;4996332;28;20565;-64
2023/04/11 08:29:10;;;;;;;9.65;2.63;;;;;;;9.99;76.18;101239.59;5004097;28;20037;-64
2023/04/11 08:31:36;;;;;;;10.32;2.50;;;;;;;10.01;75.83;101253.56;4979660;28;20062;-63
2023/04/11 08:34:01;;;;;;;7.55;2.33;;;;;;;9.95;75.75;101259.47;4997531;28;20576;-64
2023/04/11 08:36:26;;;;;;;10.48;2.53;;;;;;;10.02;76.58;101253.63;5002690;28;20113;-63
2023/04/11 08:38:54;;;;;;;9.18;2.13;;;;;;;10.17;72.19;101261.03;5004657;28;20106;-64
2023/04/11 08:41:19;;;;;;;9.70;2.03;;;;;;;10.23;71.87;101261.22;5000163;28;20108;-64
2023/04/11 08:43:45;;;;;;;11.38;2.15;;;;;;;10.34;72.82;101258.09;5005165;28;20112;-64
2023/04/11 08:46:11;;;;;;;12.88;2.65;;;;;;;10.45;71.60;101264.53;5008688;28;20021;-63
2023/04/11 08:48:37;;;;;;;11.60;2.40;;;;;;;10.41;70.13;101265.28;4999711;28;20046;-64
2023/04/11 08:51:27;;;;;;;8.43;1.95;;;;;;;10.22;70.63;101258.56;4998279;28;20049;-64
2023/04/11 08:53:56;;;;;;;10.45;2.03;;;;;;;10.25;69.59;101264.78;4995900;28;20026;-64
2023/04/11 08:56:22;;;;;;;10.97;2.70;;;;;;;10.24;71.72;101252.59;4991824;28;20032;-63
2023/04/11 08:58:47;;;;;;;8.88;2.20;;;;;;;10.36;71.52;101256.44;4994152;28;20735;-64
2023/04/11 09:03:51;;;;;;;9.02;2.20;;;;;;;10.82;70.96;101256.91;5243083;23;20522;-94
2023/04/11 09:06:16;;;;;;;7.22;1.98;;;;;;;11.07;68.21;101248.97;4998887;28;20030;-93
2023/04/11 09:08:42;;;;;;;10.63;2.00;;;;;;;11.24;69.38;101240.72;5000587;28;20029;-94
2023/04/11 09:11:07;;;;;;;9.88;1.83;;;;;;;11.41;67.28;101260.34;4988869;28;20919;-94
2023/04/11 09:13:33;;;;;;;6.45;1.85;;;;;;;11.34;62.93;101244.47;4984162;28;20395;-93
2023/04/11 09:16:04;;;;;;;10.65;2.33;;;;;;;11.11;66.34;101260.38;4984624;28;20034;-95
2023/04/11 09:18:37;;;;;;;7.40;2.20;;;;;;;11.18;69.05;101262.31;4978331;28;20030;-95
2023/04/11 09:21:05;;;;;;;7.32;2.13;;;;;;;11.29;64.03;101265.22;4978646;28;20045;-96
2023/04/11 09:23:31;;;;;;;11.13;2.40;;;;;;;11.29;67.86;101258.25;4986842;28;20041;-95
2023/04/11 09:25:56;;;;;;;9.80;2.03;;;;;;;11.48;67.50;101261.38;4982976;28;20121;-95
2023/04/11 09:28:22;;;;;;;9.57;1.85;;;;;;;11.72;63.50;101271.59;4986859;28;20105;-94
2023/04/11 09:30:52;;;;;;;8.27;1.67;;;;;;;11.80;62.63;101274.38;4987451;28;20034;-96
2023/04/11 09:33:21;;;;;;;7.63;1.65;;;;;;;11.90;64.95;101271.16;4987160;28;20017;-96
2023/04/11 09:35:53;;;;;;;7.30;1.77;;;;;;;12.03;63.55;101268.88;4987231;28;20065;-96
2023/04/11 09:38:35;;;;;;;10.63;2.05;;;;;;;11.98;64.60;101271.41;4979770;28;20056;-96
2023/04/11 09:41:02;;;;;;;14.48;2.63;;;;;;;12.10;63.57;101268.19;4985934;28;20073;-95
2023/04/11 09:43:56;;;;;;;7.30;1.63;;;;;;;12.27;63.01;101277.31;4996712;28;20074;-96
2023/04/11 09:46:21;;;;;;;9.15;1.63;;;;;;;12.40;59.22;101267.13;4986576;28;21424;-94
2023/04/11 09:48:53;;;;;;;6.85;1.50;;;;;;;12.41;59.84;101271.53;5001230;28;20026;-96
2023/04/11 09:51:18;;;;;;;9.30;1.60;;;;;;;12.30;60.38;101272.16;4982404;28;20483;-96
2023/04/11 09:53:44;;;;;;;8.75;2.20;;;;;;;12.48;62.33;101281.25;4979875;28;20022;-95
2023/04/11 09:56:10;;;;;;;8.60;1.58;;;;;;;12.68;60.79;101271.25;4978767;28;20137;-95
2023/04/11 09:58:37;;;;;;;8.73;1.73;;;;;;;12.71;58.37;101268.72;4981335;28;20030;-95
2023/04/11 10:01:09;;;;;;;9.07;1.95;;;;;;;12.71;57.51;101268.72;4979142;28;20030;-95
2023/04/11 10:03:37;;;;;;;6.43;1.40;;;;;;;12.60;55.96;101283.28;4959530;28;20511;-95
2023/04/11 10:06:07;;;;;;;7.43;1.63;;;;;;;12.56;56.58;101264.03;4952935;28;20073;-96
2023/04/11 10:08:35;;;;;;;8.35;1.70;;;;;;;12.63;55.71;101289.47;4969337;28;20125;-95
2023/04/11 10:11:07;;;;;;;5.75;1.23;;;;;;;12.74;54.62;101278.34;4962976;28;20022;-95
2023/04/11 10:13:38;;;;;;;8.55;1.40;;;;;;;12.72;54.56;101274.84;4952319;28;20215;-96
2023/04/11 10:16:15;;;;;;;9.00;1.70;;;;;;;12.73;56.63;101282.72;4952429;28;20101;-96
2023/04/11 10:19:04;;;;;;;7.38;1.80;;;;;;;12.93;57.11;101271.78;4952912;28;20639;-96
2023/04/11 10:21:29;;;;;;;6.97;1.63;;;;;;;12.97;56.66;101271.88;4952884;28;20033;-96
2023/04/11 10:24:12;;;;;;;6.55;1.77;;;;;;;13.13;55.87;101275.69;4960072;28;20031;-96
2023/04/11 10:27:13;;;;;;;7.90;1.83;;;;;;;13.03;56.15;101272.00;4952096;28;20049;-95
2023/04/11 10:29:45;;;;;;;7.38;1.80;;;;;;;13.19;59.64;101272.31;4948619;28;20045;-96
2023/04/11 10:32:11;;;;;;;5.50;1.50;;;;;;;13.03;54.33;101271.13;4953010;28;20038;-96
2023/04/11 10:34:57;;;;;;;5.20;1.50;;;;;;;12.85;56.44;101279.47;4968393;28;20027;-96
2023/04/11 10:37:29;;;;;;;7.75;1.40;;;;;;;12.50;54.40;101287.44;4960376;28;20538;-96
2023/04/11 10:39:59;;;;;;;6.70;1.58;;;;;;;12.26;55.62;101291.22;4952135;28;20035;-96
2023/04/11 10:42:38;;;;;;;6.20;1.40;;;;;;;12.45;56.84;101278.59;4952220;28;20113;-96
2023/04/11 10:45:25;;;;;;;7.18;1.35;;;;;;;12.73;56.33;101279.19;4952165;28;20027;-96
2023/04/11 10:47:50;;;;;;;6.72;1.55;;;;;;;12.86;52.11;101269.03;4959060;28;20086;-95
2023/04/11 10:50:25;;;;;;;5.87;1.40;;;;;;;12.87;53.94;101277.75;4952135;28;20038;-96
2023/04/11 10:52:54;;;;;;;6.45;1.30;;;;;;;12.74;52.73;101280.97;4958780;28;21206;-96
2023/04/11 10:55:19;;;;;;;6.13;1.83;;;;;;;12.77;56.70;101273.19;4951536;28;20026;-95
2023/04/11 10:58:07;;;;;;;6.68;1.58;;;;;;;12.97;56.44;101269.25;4952207;28;20031;-95
2023/04/11 11:00:51;;;;;;;7.75;1.85;;;;;;;13.24;55.78;101281.13;4969657;28;20045;-96
2023/04/11 11:03:19;;;;;;;8.90;1.40;;;;;;;13.45;51.47;101285.91;4951903;28;20051;-96
2023/04/11 11:06:01;;;;;;;4.38;1.00;;;;;;;13.43;49.20;101281.53;4959688;28;20089;-96
2023/04/11 11:08:32;;;;;;;6.55;1.20;;;;;;;13.11;48.39;101289.59;4952092;28;20026;-95
2023/04/11 11:11:02;;;;;;;5.95;1.30;;;;;;;12.85;48.91;101282.97;4952545;28;20041;-96
2023/04/11 11:13:43;;;;;;;4.43;1.30;;;;;;;12.80;51.50;101284.63;4951885;28;20033;-96
2023/04/11 11:16:12;;;;;;;6.80;1.40;;;;;;;12.65;51.85;101286.88;4958333;28;20027;-96
2023/04/11 11:18:38;;;;;;;;;;;;;;;12.79;54.03;101287.16;4967735;28;21091;-96
2023/04/11 11:21:03;;;;;;;3.97;1.20;;;;;;;12.86;52.54;101281.22;4957268;28;20001;-96
2023/04/11 11:23:29;;;;;;;7.40;1.80;;;;;;;13.16;54.91;101274.88;4962326;28;20026;-96
2023/04/11 11:26:00;;;;;;;6.93;1.30;;;;;;;13.46;51.54;101276.34;4964072;28;20046;-96
2023/04/11 11:28:26;;;;;;;8.73;1.60;;;;;;;13.63;52.04;101268.78;4970275;28;20026;-96
2023/04/11 11:30:56;;;;;;;6.35;1.10;;;;;;;13.63;51.84;101280.16;4991515;23;20112;-65